aviador You're here:

FMMI Decoded Metar

ANTANANARIVO in MADAGASCAR
Report Time2017-08-20 19:00:00
UTC Time2017-08-20 19:11:57
Flight Rules mvfr MVFR
Wind080° at 04 kt
W.Decomp.*RWY 11: 3.9 kt HW 1 kt LCW
W.Rank080° ranks 7
Current wind is below 080° avg. (6.4)
Visibility9999 m
Phenomena:N/A
Clouds:Broken 020 Hf
Expected CloudBase > 800 ft AGL from Temp-Dew spread
Ceiling2,000 ft
Temp15°C (ISA +8)
Dew Point13°C (88% RH)
AAT14.5°C
QNH1024 hPa
Density Alt5,007 ft
Elevation4,186 ft
Report Wrong Elevation
Raw Report
FMMI 201900Z 08004KT 9999 BKN020 15/13 Q1024 NOSIG=

Extra information for FMMI:More info

Metar Taf Metar & Taf Last 4 Metars F.Rules Stats Wind Profile Meteogram Temp Stats Airport Information Weather charts Add Link Nearby VenuesMetar ALERT Operation Metar Decoded Social comments